Big Bear Station Historical Data
Daily Summary for August 18, 2019 Units:  English    Metric   Both
Next Day »
Daily Weekly Monthly Yearly Custom
  High: Low: Average:
Temperature: 81.1 °F 45.5 °F 61.1 °F
Dew Point: 38.5 °F 20.8 °F 31.6 °F
Humidity: 64% 17% 36%
Wind Speed: 8.9mph 0mph 1.9mph
Wind Gust: -999mph - -
Wind- - West
Pressure: 23.56 in 23.50 in -
Precipitation: 0 in    
Historical Graphs
 
 
Tabular Data for August 18, 2019
Time Temperature Dew Point Pressure Wind Wind Speed Wind Gust Humidity Rainfall Rate (Hourly)
00:09 51.6 °F 24.1 °F 23.52 in Calm   -999 mph 34% 0.00 in
00:25 51.4 °F 23.9 °F 23.52 in Calm   -999 mph 34% 0.00 in
00:40 51.1 °F 23 °F 23.52 in South 2.2 mph -999 mph 33% 0.00 in
00:55 50.5 °F 27.7 °F 23.52 in Calm   -999 mph 41% 0.00 in
01:10 50.2 °F 26.8 °F 23.52 in Calm   -999 mph 40% 0.00 in
01:25 50.2 °F 24.3 °F 23.52 in Calm   -999 mph 36% 0.00 in
01:41 49.8 °F 28.8 °F 23.51 in Calm   -999 mph 44% 0.00 in
01:56 49.5 °F 29 °F 23.51 in Calm   -999 mph 45% 0.00 in
02:11 48.9 °F 26.8 °F 23.51 in Calm   -999 mph 42% 0.00 in
02:26 48.6 °F 20.8 °F 23.51 in Calm   -999 mph 33% 0.00 in
02:41 48.2 °F 24.4 °F 23.51 in Calm   -999 mph 39% 0.00 in
02:57 48.4 °F 23.9 °F 23.51 in Calm   -999 mph 38% 0.00 in
03:12 47.7 °F 23.9 °F 23.51 in Calm   -999 mph 39% 0.00 in
03:27 47.5 °F 23.8 °F 23.51 in Calm   -999 mph 39% 0.00 in
03:42 47.3 °F 23.6 °F 23.51 in Calm   -999 mph 39% 0.00 in
03:57 46.9 °F 22.6 °F 23.51 in Calm   -999 mph 38% 0.00 in
04:13 46.4 °F 25.1 °F 23.51 in Calm   -999 mph 43% 0.00 in
04:28 46.9 °F 28.7 °F 23.51 in South 1.7 mph -999 mph 49% 0.00 in
04:43 46.6 °F 29.4 °F 23.50 in Calm   -999 mph 51% 0.00 in
04:58 46.9 °F 32 °F 23.51 in Calm   -999 mph 56% 0.00 in
05:14 46.9 °F 34.6 °F 23.50 in Calm   -999 mph 62% 0.00 in
05:29 46.4 °F 34.9 °F 23.50 in Calm   -999 mph 64% 0.00 in
05:44 46.2 °F 29.1 °F 23.51 in Calm   -999 mph 51% 0.00 in
05:59 45.7 °F 27.6 °F 23.51 in Calm   -999 mph 49% 0.00 in
06:14 45.5 °F 28.9 °F 23.51 in Calm   -999 mph 52% 0.00 in
06:30 45.5 °F 32 °F 23.52 in Calm   -999 mph 59% 0.00 in
06:45 45.9 °F 33.6 °F 23.52 in Calm   -999 mph 62% 0.00 in
07:00 45.9 °F 34.4 °F 23.52 in Calm   -999 mph 64% 0.00 in
07:15 46.6 °F 33.5 °F 23.53 in Calm   -999 mph 60% 0.00 in
07:30 47.3 °F 33.3 °F 23.53 in Calm   -999 mph 58% 0.00 in
07:46 49.3 °F 35.6 °F 23.53 in Calm   -999 mph 59% 0.00 in
08:01 52.7 °F 35.6 °F 23.53 in Calm   -999 mph 52% 0.00 in
08:16 54.9 °F 33.4 °F 23.53 in Calm   -999 mph 44% 0.00 in
08:31 58.8 °F 31.9 °F 23.54 in Calm   -999 mph 36% 0.00 in
08:46 61.7 °F 34.5 °F 23.54 in NNW 2.2 mph -999 mph 36% 0.00 in
09:02 64.6 °F 35.6 °F 23.54 in NW 3.7 mph -999 mph 34% 0.00 in
09:17 65.7 °F 35.8 °F 23.54 in NNW 2.7 mph -999 mph 33% 0.00 in
09:33 65.7 °F 35.8 °F 23.55 in WNW 4.2 mph -999 mph 33% 0.00 in
09:48 66.6 °F 36.6 °F 23.55 in WNW 3.7 mph -999 mph 33% 0.00 in
10:03 67.6 °F 35.1 °F 23.55 in NNW 2.7 mph -999 mph 30% 0.00 in
10:18 68.5 °F 35.8 °F 23.56 in NW 6.8 mph -999 mph 30% 0.00 in
10:33 70 °F 36.3 °F 23.56 in WNW 2.7 mph -999 mph 29% 0.00 in
10:49 71.2 °F 35.5 °F 23.56 in Calm   -999 mph 27% 0.00 in
11:04 74.5 °F 34.3 °F 23.56 in NW 2.2 mph -999 mph 23% 0.00 in
11:19 75.2 °F 28.8 °F 23.56 in Calm   -999 mph 18% 0.00 in
11:35 76.8 °F 30.1 °F 23.56 in NNW 2.7 mph -999 mph 18% 0.00 in
11:51 77 °F 36.4 °F 23.56 in WNW 2.7 mph -999 mph 23% 0.00 in
12:07 77 °F 35.2 °F 23.56 in WNW 4.7 mph -999 mph 22% 0.00 in
12:22 77.9 °F 34.8 °F 23.56 in West 1.7 mph -999 mph 21% 0.00 in
12:37 78.1 °F 35 °F 23.56 in NW 5.3 mph -999 mph 21% 0.00 in
12:52 78.6 °F 35.4 °F 23.56 in NNE 2.2 mph -999 mph 21% 0.00 in
13:08 77 °F 32.9 °F 23.56 in NE 6.3 mph -999 mph 20% 0.00 in
13:23 78.8 °F 34.3 °F 23.56 in NNW 6.3 mph -999 mph 20% 0.00 in
13:39 78.8 °F 35.6 °F 23.56 in NE 8.9 mph -999 mph 21% 0.00 in
13:54 80.6 °F 31.8 °F 23.56 in NW 4.2 mph -999 mph 17% 0.00 in
14:09 81.1 °F 34.9 °F 23.56 in NNW 6.8 mph -999 mph 19% 0.00 in
14:25 78.8 °F 34.3 °F 23.56 in NNW 5.3 mph -999 mph 20% 0.00 in
14:40 80.2 °F 35.5 °F 23.56 in NW 6.8 mph -999 mph 20% 0.00 in
14:55 80.1 °F 36.6 °F 23.55 in WNW 3.7 mph -999 mph 21% 0.00 in
15:11 78.8 °F 36.7 °F 23.55 in NW 4.7 mph -999 mph 22% 0.00 in
15:26 78.8 °F 36.7 °F 23.55 in NNW 7.3 mph -999 mph 22% 0.00 in
15:41 78.8 °F 37.9 °F 23.54 in NNE 1.7 mph -999 mph 23% 0.00 in
15:56 78.3 °F 38.5 °F 23.54 in South 1.7 mph -999 mph 24% 0.00 in
16:11 77 °F 34.1 °F 23.54 in West 3.2 mph -999 mph 21% 0.00 in
16:27 77 °F 35.2 °F 23.54 in NW 4.7 mph -999 mph 22% 0.00 in
Big Bear CA Weather